Blair, Illinois
Current Conditions -  °F | °C
As of 9:50 PM on Saturday 20 Dec 2014 (Local Time) from KFOA Reporting Station
Clear Clear  
Wind Chill:   Ceiling: Unl
Heat Index:   Visibility: 10mi
Dew Point: -2°   Wind: 3mph
Humidity: 84%   Direction: 140°SE
Pressure: 30.3"   Gusts: NA
Location:  38.8267°N, 88.5024°W
Report Text: KFOA 210350Z AUTO 14003KT 10SM CLR 01/M02 A3030 RMK AO2 T00081016
Loading
Personal Weather Stations






























Interactive Weather Map New forecast layout! Learn more

10-Day Weather Forecast

Advertisements
Track Severe Weather on mobile